createdAt,value
2022-12-25T00:00:22.150Z,10.60
2022-12-25T00:05:21.249Z,10.60
2022-12-25T00:10:20.041Z,10.60
2022-12-25T00:15:19.044Z,10.60
2022-12-25T00:20:18.126Z,10.60
2022-12-25T00:25:17.068Z,10.70
2022-12-25T00:30:16.079Z,10.70
2022-12-25T00:35:15.075Z,10.70
2022-12-25T00:40:14.072Z,10.70
2022-12-25T00:45:15.824Z,10.80
2022-12-25T00:50:14.143Z,10.90
2022-12-25T00:55:13.154Z,11.00
2022-12-25T01:00:12.160Z,11.10
2022-12-25T01:05:11.200Z,11.20
2022-12-25T01:10:22.204Z,11.20
2022-12-25T01:15:21.063Z,11.20
2022-12-25T01:20:20.093Z,11.30
2022-12-25T01:25:19.079Z,11.30
2022-12-25T01:30:17.969Z,11.30
2022-12-25T01:35:17.060Z,11.40
2022-12-25T01:40:16.131Z,11.40
2022-12-25T01:45:15.127Z,11.30
2022-12-25T01:50:14.051Z,11.30
2022-12-25T01:55:13.452Z,11.30
2022-12-25T02:00:12.177Z,11.40
2022-12-25T02:05:11.209Z,11.40
2022-12-25T02:10:10.230Z,11.40
2022-12-25T02:15:09.174Z,11.40
2022-12-25T02:20:08.156Z,11.60
2022-12-25T02:25:07.906Z,11.50
2022-12-25T02:30:07.055Z,11.50
2022-12-25T02:35:06.079Z,11.60
2022-12-25T02:40:05.209Z,11.60
2022-12-25T02:45:22.215Z,11.70
2022-12-25T02:50:38.946Z,11.70
2022-12-25T02:56:06.561Z,11.70
2022-12-25T03:01:23.029Z,11.70
2022-12-25T03:06:40.213Z,11.80
2022-12-25T03:11:39.153Z,11.80
2022-12-25T03:16:50.301Z,11.90
2022-12-25T03:22:08.679Z,11.90
2022-12-25T03:27:08.163Z,11.90
2022-12-25T03:32:07.098Z,11.90
2022-12-25T03:37:35.145Z,11.90
2022-12-25T03:42:53.682Z,11.90
2022-12-25T03:48:27.482Z,12.00
2022-12-25T03:53:44.287Z,12.00
2022-12-25T03:59:01.245Z,12.00
2022-12-25T04:04:18.485Z,12.00
2022-12-25T04:09:35.311Z,12.00
2022-12-25T04:14:52.094Z,11.90
2022-12-25T04:20:09.386Z,12.00
2022-12-25T04:25:25.938Z,12.00
2022-12-25T04:30:43.253Z,12.00
2022-12-25T04:36:00.153Z,12.00
2022-12-25T04:40:59.193Z,12.00
2022-12-25T04:45:58.444Z,12.00
2022-12-25T04:50:57.213Z,12.00
2022-12-25T04:55:56.184Z,12.00
2022-12-25T05:00:55.217Z,12.00
2022-12-25T05:05:54.298Z,12.00
2022-12-25T05:10:53.280Z,12.00
2022-12-25T05:15:52.280Z,12.00
2022-12-25T05:20:54.210Z,12.00
2022-12-25T05:25:53.138Z,11.90
2022-12-25T05:30:52.209Z,12.00
2022-12-25T05:35:51.302Z,12.00
2022-12-25T05:40:50.173Z,12.00
2022-12-25T05:45:49.098Z,12.00
2022-12-25T05:50:48.195Z,11.90
2022-12-25T05:55:47.209Z,11.90
2022-12-25T06:00:46.232Z,11.80
2022-12-25T06:05:45.553Z,11.70
2022-12-25T06:10:44.273Z,11.60
2022-12-25T06:15:43.206Z,11.60
2022-12-25T06:20:42.087Z,11.60
2022-12-25T06:25:41.292Z,11.60
2022-12-25T06:30:40.405Z,11.60
2022-12-25T06:35:39.450Z,11.60
2022-12-25T06:40:39.341Z,11.60
2022-12-25T06:45:38.125Z,11.60
2022-12-25T06:50:37.358Z,11.60
2022-12-25T06:55:36.241Z,11.60
2022-12-25T07:00:35.169Z,11.60
2022-12-25T07:05:34.164Z,11.60
2022-12-25T07:10:33.210Z,11.60
2022-12-25T07:15:32.534Z,11.60
2022-12-25T07:20:31.277Z,11.60
2022-12-25T07:25:36.822Z,11.60
2022-12-25T07:30:31.293Z,11.70
2022-12-25T07:35:30.291Z,11.60
2022-12-25T07:40:29.311Z,11.70
2022-12-25T07:45:28.421Z,11.70
2022-12-25T07:50:30.259Z,11.70
2022-12-25T07:55:29.096Z,11.60
2022-12-25T08:00:30.118Z,11.60
2022-12-25T08:05:29.287Z,11.60
2022-12-25T08:10:28.310Z,11.60
2022-12-25T08:15:27.319Z,11.70
2022-12-25T08:20:26.312Z,11.70
2022-12-25T08:25:25.394Z,11.70
2022-12-25T08:30:24.145Z,11.80
2022-12-25T08:35:23.111Z,11.80
2022-12-25T08:40:22.379Z,11.80
2022-12-25T08:45:21.368Z,11.80
2022-12-25T08:50:20.389Z,11.90
2022-12-25T08:55:19.402Z,11.90
2022-12-25T09:00:18.224Z,11.90
2022-12-25T09:05:17.220Z,12.00
2022-12-25T09:10:16.464Z,12.10
2022-12-25T09:15:15.412Z,12.20
2022-12-25T09:20:17.242Z,12.30
2022-12-25T09:25:16.441Z,12.30
2022-12-25T09:30:15.351Z,12.30
2022-12-25T09:35:16.232Z,12.20
2022-12-25T09:40:15.390Z,12.10
2022-12-25T09:45:14.261Z,12.10
2022-12-25T09:50:13.431Z,12.10
2022-12-25T09:55:17.878Z,12.10
2022-12-25T10:00:13.296Z,12.10
2022-12-25T10:05:12.447Z,12.00
2022-12-25T10:10:11.818Z,12.00
2022-12-25T10:15:11.373Z,12.00
2022-12-25T10:20:10.776Z,12.00
2022-12-25T10:25:09.385Z,12.10
2022-12-25T10:30:08.195Z,12.10
2022-12-25T10:35:07.275Z,12.20
2022-12-25T10:40:06.438Z,12.20
2022-12-25T10:45:05.639Z,12.20
2022-12-25T10:50:04.453Z,12.20
2022-12-25T10:55:03.279Z,12.30
2022-12-25T11:00:02.586Z,12.40
2022-12-25T11:05:02.126Z,12.40
2022-12-25T11:10:05.174Z,12.40
2022-12-25T11:15:02.371Z,12.40
2022-12-25T11:20:01.586Z,12.30
2022-12-25T11:25:00.403Z,12.30
2022-12-25T11:29:59.522Z,12.30
2022-12-25T11:34:58.416Z,12.30
2022-12-25T11:39:57.431Z,12.50
2022-12-25T11:44:56.437Z,12.60
2022-12-25T11:50:00.319Z,12.70
2022-12-25T11:54:56.523Z,12.70
2022-12-25T11:59:55.573Z,12.60
2022-12-25T12:04:55.547Z,12.50
2022-12-25T12:09:54.496Z,12.40
2022-12-25T12:14:53.526Z,12.40
2022-12-25T12:19:53.418Z,12.40
2022-12-25T12:24:52.414Z,12.30
2022-12-25T12:29:51.420Z,12.40
2022-12-25T12:34:50.347Z,12.40
2022-12-25T12:39:49.463Z,12.30
2022-12-25T12:44:48.481Z,12.30
2022-12-25T12:49:47.507Z,12.30
2022-12-25T12:54:46.493Z,12.30
2022-12-25T12:59:46.596Z,12.30
2022-12-25T13:04:45.529Z,12.40
2022-12-25T13:09:44.556Z,12.50
2022-12-25T13:14:43.558Z,12.50
2022-12-25T13:19:42.462Z,12.50
2022-12-25T13:24:41.382Z,12.60
2022-12-25T13:29:40.374Z,12.70
2022-12-25T13:34:39.458Z,12.60
2022-12-25T13:39:38.404Z,12.70
2022-12-25T13:44:37.435Z,12.70
2022-12-25T13:49:36.387Z,12.70
2022-12-25T13:54:35.448Z,12.70
2022-12-25T13:59:34.446Z,12.70
2022-12-25T14:04:33.364Z,12.70
2022-12-25T14:09:32.345Z,12.70
2022-12-25T14:14:31.495Z,12.70
2022-12-25T14:19:30.517Z,12.80
2022-12-25T14:24:29.555Z,12.70
2022-12-25T14:29:28.725Z,12.70
2022-12-25T14:34:27.543Z,12.70
2022-12-25T14:39:26.565Z,12.70
2022-12-25T14:44:25.616Z,12.70
2022-12-25T14:49:24.588Z,12.60
2022-12-25T14:54:23.383Z,12.60
2022-12-25T14:59:22.581Z,12.60
2022-12-25T15:04:23.289Z,12.60
2022-12-25T15:09:22.531Z,12.50
2022-12-25T15:14:21.472Z,12.60
2022-12-25T15:19:25.202Z,12.60
2022-12-25T15:24:21.550Z,12.60
2022-12-25T15:29:38.157Z,12.60
2022-12-25T15:34:21.723Z,12.70
2022-12-25T15:39:20.762Z,12.70
2022-12-25T15:44:19.782Z,12.70
2022-12-25T15:49:18.435Z,12.70
2022-12-25T15:54:17.697Z,12.80
2022-12-25T15:59:17.356Z,12.80
2022-12-25T16:04:16.385Z,12.80
2022-12-25T16:09:15.400Z,12.80
2022-12-25T16:14:14.637Z,12.90
2022-12-25T16:19:13.521Z,12.90
2022-12-25T16:24:13.240Z,13.00
2022-12-25T16:29:12.456Z,13.10
2022-12-25T16:34:11.583Z,13.10
2022-12-25T16:39:10.580Z,13.10
2022-12-25T16:44:10.698Z,13.10
2022-12-25T16:49:09.650Z,13.20
2022-12-25T16:54:08.463Z,13.20
2022-12-25T16:59:07.485Z,13.20
2022-12-25T17:04:06.732Z,13.20
2022-12-25T17:09:05.757Z,13.30
2022-12-25T17:14:04.769Z,13.20
2022-12-25T17:19:04.166Z,13.30
2022-12-25T17:24:04.384Z,13.30
2022-12-25T17:29:03.710Z,13.20
2022-12-25T17:34:02.588Z,13.20
2022-12-25T17:39:02.171Z,13.20
2022-12-25T17:44:01.635Z,13.20
2022-12-25T17:49:00.893Z,13.20
2022-12-25T17:53:59.552Z,13.20
2022-12-25T17:58:58.492Z,13.20
2022-12-25T18:03:57.738Z,13.20
2022-12-25T18:08:56.676Z,13.20
2022-12-25T18:13:57.669Z,13.20
2022-12-25T18:18:56.900Z,13.20
2022-12-25T18:23:55.464Z,13.30
2022-12-25T18:28:54.613Z,13.30
2022-12-25T18:33:53.888Z,13.30
2022-12-25T18:38:52.539Z,13.30
2022-12-25T18:43:55.581Z,13.40
2022-12-25T18:48:52.671Z,13.40
2022-12-25T18:53:51.822Z,13.40
2022-12-25T18:58:50.528Z,13.50
2022-12-25T19:03:50.592Z,13.50
2022-12-25T19:08:49.524Z,13.50
2022-12-25T19:13:50.250Z,13.50
2022-12-25T19:18:49.591Z,13.60
2022-12-25T19:23:48.607Z,13.50
2022-12-25T19:28:47.523Z,13.60
2022-12-25T19:33:46.624Z,13.50
2022-12-25T19:38:45.558Z,13.60
2022-12-25T19:43:45.165Z,13.60
2022-12-25T19:48:44.680Z,13.60
2022-12-25T19:53:43.716Z,13.60
2022-12-25T19:58:42.566Z,13.60
2022-12-25T20:03:46.472Z,13.60
2022-12-25T20:08:44.712Z,13.60
2022-12-25T20:13:43.640Z,13.60
2022-12-25T20:18:42.653Z,13.60
2022-12-25T20:23:41.670Z,13.70
2022-12-25T20:28:41.172Z,13.60
2022-12-25T20:33:39.708Z,13.60
2022-12-25T20:38:38.783Z,13.60
2022-12-25T20:43:43.277Z,13.60
2022-12-25T20:48:38.764Z,13.60
2022-12-25T20:53:37.788Z,13.60
2022-12-25T20:58:36.700Z,13.70
2022-12-25T21:03:35.872Z,13.70
2022-12-25T21:08:35.068Z,13.80
2022-12-25T21:13:33.859Z,13.80
2022-12-25T21:18:33.153Z,13.80
2022-12-25T21:23:32.690Z,13.80
2022-12-25T21:28:32.013Z,13.70
2022-12-25T21:33:48.808Z,13.80
2022-12-25T21:38:47.766Z,13.80
2022-12-25T21:43:46.732Z,13.80
2022-12-25T21:48:45.858Z,13.80
2022-12-25T21:53:44.769Z,13.80
2022-12-25T21:58:43.772Z,13.70
2022-12-25T22:03:42.709Z,13.80
2022-12-25T22:08:41.794Z,13.70
2022-12-25T22:13:59.126Z,13.70
2022-12-25T22:19:15.827Z,13.70
2022-12-25T22:24:14.672Z,13.60
2022-12-25T22:29:13.773Z,13.60
2022-12-25T22:34:13.203Z,13.50
2022-12-25T22:39:12.728Z,13.40
2022-12-25T22:44:18.907Z,13.20
2022-12-25T22:49:12.789Z,13.00
2022-12-25T22:54:12.831Z,13.00
2022-12-25T22:59:11.758Z,13.00
2022-12-25T23:04:10.890Z,12.90
2022-12-25T23:09:09.976Z,12.90
2022-12-25T23:14:27.047Z,12.90
2022-12-25T23:19:43.865Z,12.90
2022-12-25T23:25:00.932Z,12.90
2022-12-25T23:29:59.767Z,12.90
2022-12-25T23:34:58.693Z,12.90
2022-12-25T23:39:57.598Z,13.00
2022-12-25T23:44:56.817Z,13.00
2022-12-25T23:49:55.731Z,13.00
2022-12-25T23:54:54.847Z,13.00
2022-12-25T23:59:53.834Z,13.10
